Adak, AK

6:29 AM HST on February 19, 2018 (GMT -1000)
Adak | | Change Station

Elev 16 ft 51.88 °N, 176.65 °W | Updated 33 minutes ago

Rain
Rain
37 °F
Feels Like 24 °F
N
30
Wind Variable Wind from SW
Gusts 36 mph

Today
High -- | Low -- °F
--% Chance of Precip.
Yesterday
High -- | Low -- °F
Precip. -- in
Pressure 29.76 in
Visibility 10.0 miles
Clouds Few 2600 ft
Windchill 24 °F
Dew Point 29 °F
Humidity 73%
Rainfall 0.00 in
Snow Depth Not available.
9:33 AM 7:42 PM
Waxing Crescent, 14% visible
METAR PADK 191556Z AUTO 23026G31KT 10SM FEW026 03/M02 A2976 RMK AO2 PK WND 26041/1501 RAB01E05UPB16E18SNB05E16 SLP078 P0000 T00281017
Pressure 29.76 in
Visibility 10.0 miles
Clouds Few 2600 ft
Windchill 24 °F
Dew Point 29 °F
Humidity 73%
Rainfall 0.00 in
Snow Depth Not available.
9:33 AM 7:42 PM
Waxing Crescent, 14% visible
METAR PADK 191556Z AUTO 23026G31KT 10SM FEW026 03/M02 A2976 RMK AO2 PK WND 26041/1501 RAB01E05UPB16E18SNB05E16 SLP078 P0000 T00281017

Get Severe Weather Alerts

Thanks for signing up!

Be on the lookout for a verification email in your inbox.

You'll start receiving the daily forecast at 6 AM.

×

10-Day Weather Forecast

Almanac

Astronomy

Feb. 19, 2018 Rise Set
Actual Time
Civil Twilight
Nautical Twilight
Astronomical Twilight
Moon
Length of Visible Light
Length of Day
Tomorrow will be .
, % of the Moon is Illuminated

Today's Extremes

State Highs State Lows

Community

WunderPhotos

Category 6

Welcome to Category 6. This is the collective home for Weather Underground's featured writeups by Dr. Jeff Masters (right), Bob Henson (left), Chris Burt, and other regular contributors.

Nearby

Air Quality

  Air Quality AQ Index Pollutant
Not available.

Snow Depth

Station Depth Elevation

Earthquake Activity

City Distance Mag. Time & Date
Minimum magnitude displayed is 2.5.

Coastal Water Temperatures

Place Temperature

Stations

Nearby Weather Stations

Station Location Temp. Windchill Dew Point Humidity Wind Precip. Elev Updated Type
                   

Watches & Warnings

There are currently no watches in effect.